Time;durP1;ratioP1;P1;durP2;ratioP2;P2;SDS_P1;SDS_P2;PMS_P1;PMS_P2;Temp;Humidity;BMP_temperature;BMP_pressure;BME280_temperature;BME280_humidity;BME280_pressure;Samples;Min_cycle;Max_cycle;Signal;HPM_P1;HPM_P2
2023/08/17 00:02:14;;;;;;;6.45;3.28;;;17.60;99.90;;;;;;5021326;28;20041;-77
2023/08/17 00:04:45;;;;;;;10.50;3.47;;;17.60;99.90;;;;;;5000784;28;20073;-77
2023/08/17 00:07:16;;;;;;;8.32;3.22;;;17.60;99.90;;;;;;5013530;28;20172;-77
2023/08/17 00:09:47;;;;;;;7.22;3.50;;;17.60;99.90;;;;;;5002782;28;20042;-77
2023/08/17 00:12:14;;;;;;;8.07;3.47;;;17.60;99.90;;;;;;4998770;28;20033;-77
2023/08/17 00:14:40;;;;;;;9.98;3.05;;;17.50;99.90;;;;;;5009220;28;20287;-77
2023/08/17 00:17:09;;;;;;;8.98;3.60;;;17.50;99.90;;;;;;5004545;28;20124;-78
2023/08/17 00:19:41;;;;;;;7.97;3.50;;;17.40;99.90;;;;;;5021713;28;20100;-77
2023/08/17 00:22:13;;;;;;;5.47;3.15;;;17.50;99.90;;;;;;5016270;28;20095;-78
2023/08/17 00:24:41;;;;;;;6.93;3.78;;;17.50;99.90;;;;;;5010030;28;20041;-77
2023/08/17 00:27:27;;;;;;;8.88;3.42;;;17.40;99.90;;;;;;5022714;28;20588;-78
2023/08/17 00:29:54;;;;;;;6.35;3.72;;;17.40;99.90;;;;;;5023201;28;20408;-78
2023/08/17 00:32:20;;;;;;;11.60;4.18;;;17.30;99.90;;;;;;5012693;28;20116;-78
2023/08/17 00:34:52;;;;;;;10.13;4.13;;;17.40;99.90;;;;;;5003646;28;20124;-78
2023/08/17 00:37:23;;;;;;;7.57;3.90;;;17.30;99.90;;;;;;4997506;28;20508;-78
2023/08/17 00:39:57;;;;;;;10.38;4.20;;;17.30;99.90;;;;;;5026010;28;20379;-78
2023/08/17 00:42:25;;;;;;;14.93;4.15;;;17.30;99.90;;;;;;5010047;28;20472;-78
2023/08/17 00:44:51;;;;;;;10.18;3.95;;;17.30;99.90;;;;;;5004009;28;20047;-77
2023/08/17 00:47:18;;;;;;;7.03;3.78;;;17.50;99.90;;;;;;5004134;28;20489;-77
2023/08/17 00:49:45;;;;;;;6.60;3.22;;;17.30;99.90;;;;;;4997496;28;20042;-77
2023/08/17 00:52:14;;;;;;;10.50;4.40;;;17.30;99.90;;;;;;4998462;28;20033;-78
2023/08/17 00:54:41;;;;;;;5.97;3.33;;;17.30;99.90;;;;;;5007120;28;20041;-78
2023/08/17 00:57:09;;;;;;;9.70;3.80;;;17.30;99.90;;;;;;4987038;28;20049;-77
2023/08/17 00:59:35;;;;;;;5.65;3.38;;;17.30;99.90;;;;;;5003288;28;20499;-78
2023/08/17 01:04:32;;;;;;;10.80;3.72;;;17.30;99.90;;;;;;5057191;22;20070;-64
2023/08/17 01:06:58;;;;;;;11.38;3.58;;;17.20;99.90;;;;;;5057020;28;20037;-64
2023/08/17 01:09:23;;;;;;;8.02;3.83;;;17.30;99.90;;;;;;5032189;28;20045;-64
2023/08/17 01:12:14;;;;;;;9.77;3.00;;;17.20;99.90;;;;;;5046015;28;20112;-64
2023/08/17 01:14:55;;;;;;;12.48;3.13;;;17.20;99.90;;;;;;5022657;28;20494;-64
2023/08/17 01:17:37;;;;;;;7.93;3.38;;;17.20;99.90;;;;;;5044431;28;20586;-64
2023/08/17 01:20:04;;;;;;;6.28;2.92;;;17.10;99.90;;;;;;5015029;28;20127;-64
2023/08/17 01:22:33;;;;;;;10.02;3.42;;;17.10;99.90;;;;;;5047741;28;20449;-64
2023/08/17 01:24:58;;;;;;;9.55;3.13;;;17.10;99.90;;;;;;5040676;28;20398;-64
2023/08/17 01:27:25;;;;;;;8.27;3.58;;;17.10;99.90;;;;;;5033544;28;20034;-64
2023/08/17 01:29:52;;;;;;;9.15;3.15;;;17.00;99.90;;;;;;5032015;28;20033;-64
2023/08/17 01:33:04;;;;;;;6.85;3.35;;;17.00;99.90;;;;;;5039019;28;20037;-64
2023/08/17 01:35:34;;;;;;;;;;;17.00;99.90;;;;;;4936886;29;20083;-64
2023/08/17 01:38:04;;;;;;;9.32;3.40;;;16.90;99.90;;;;;;5003807;28;20383;-64
2023/08/17 01:40:33;;;;;;;8.73;3.50;;;16.90;99.90;;;;;;5018812;28;20033;-64
2023/08/17 01:43:00;;;;;;;10.27;3.50;;;16.90;99.90;;;;;;5032001;28;20042;-65
2023/08/17 01:45:26;;;;;;;8.70;3.30;;;16.90;99.90;;;;;;5035453;28;20037;-64
2023/08/17 01:47:52;;;;;;;7.95;3.30;;;16.90;99.90;;;;;;5040639;28;20617;-64
2023/08/17 01:50:20;;;;;;;8.00;3.40;;;16.80;99.90;;;;;;5026618;28;20050;-64
2023/08/17 01:52:46;;;;;;;6.22;3.63;;;16.80;99.90;;;;;;5027803;28;20485;-64
2023/08/17 01:55:11;;;;;;;7.47;3.15;;;16.80;99.90;;;;;;5037816;28;20115;-65
2023/08/17 01:57:37;;;;;;;9.65;3.22;;;16.80;99.90;;;;;;5033792;28;20380;-64
2023/08/17 02:00:05;;;;;;;7.88;3.20;;;16.70;99.90;;;;;;5030018;28;20052;-65
2023/08/17 02:02:31;;;;;;;7.60;3.28;;;16.70;99.90;;;;;;5032681;28;20447;-64
2023/08/17 02:04:56;;;;;;;8.43;3.60;;;16.70;99.90;;;;;;5031398;28;20070;-65
2023/08/17 02:07:22;;;;;;;12.50;3.63;;;16.70;99.90;;;;;;5032092;28;20092;-65
2023/08/17 02:09:48;;;;;;;9.93;3.28;;;16.70;99.90;;;;;;5042277;28;20048;-65
2023/08/17 02:12:13;;;;;;;7.75;3.40;;;16.70;99.90;;;;;;5034333;28;20152;-65
2023/08/17 02:14:39;;;;;;;8.95;3.28;;;16.70;99.90;;;;;;5033743;28;20046;-65
2023/08/17 02:17:05;;;;;;;6.95;3.15;;;16.80;99.90;;;;;;5035318;28;20396;-65
2023/08/17 02:19:32;;;;;;;6.45;3.10;;;16.70;99.90;;;;;;5028938;28;20060;-65
2023/08/17 02:21:58;;;;;;;10.70;3.35;;;16.70;99.90;;;;;;5039372;28;20048;-65
2023/08/17 02:24:24;;;;;;;8.07;3.10;;;16.80;99.90;;;;;;5042158;28;20072;-65
2023/08/17 02:26:50;;;;;;;9.65;2.92;;;16.70;99.90;;;;;;5031599;28;20381;-65
2023/08/17 02:29:16;;;;;;;6.85;3.00;;;16.80;99.90;;;;;;5025263;28;20043;-65
2023/08/17 02:31:41;;;;;;;9.93;2.85;;;16.70;99.90;;;;;;5040040;28;20080;-65
2023/08/17 02:34:07;;;;;;;9.98;3.08;;;16.70;99.90;;;;;;5042600;28;20079;-65
2023/08/17 02:36:33;;;;;;;6.93;3.30;;;16.70;99.90;;;;;;5035231;28;20124;-65
2023/08/17 02:38:59;;;;;;;6.07;3.05;;;16.70;99.90;;;;;;5019348;28;20030;-65
2023/08/17 02:41:24;;;;;;;7.13;3.17;;;16.70;99.90;;;;;;5022257;28;20053;-65
2023/08/17 02:43:50;;;;;;;8.43;3.20;;;16.70;99.90;;;;;;5040950;28;20061;-65
2023/08/17 02:46:16;;;;;;;10.38;2.92;;;16.70;99.90;;;;;;5039574;28;20038;-65
2023/08/17 02:48:41;;;;;;;6.07;3.13;;;16.70;99.90;;;;;;5037451;28;20029;-65
2023/08/17 02:51:07;;;;;;;8.02;2.75;;;16.80;99.90;;;;;;5016548;28;20042;-65
2023/08/17 02:53:33;;;;;;;5.03;3.00;;;16.70;99.90;;;;;;5042457;28;20041;-65
2023/08/17 02:55:58;;;;;;;6.55;3.00;;;16.70;99.90;;;;;;5039223;28;20511;-65
2023/08/17 02:58:24;;;;;;;9.25;2.70;;;16.80;99.90;;;;;;5044541;28;20045;-65
2023/08/17 03:00:53;;;;;;;7.72;2.83;;;16.80;99.90;;;;;;5041953;28;20037;-65
2023/08/17 03:03:19;;;;;;;8.65;3.22;;;16.70;99.90;;;;;;5041785;28;20033;-65
2023/08/17 03:05:44;;;;;;;11.27;3.22;;;16.80;99.90;;;;;;5036853;28;20029;-65
2023/08/17 03:08:10;;;;;;;8.70;2.80;;;16.80;99.90;;;;;;5035016;28;20075;-65
2023/08/17 03:10:37;;;;;;;6.63;3.00;;;16.80;99.90;;;;;;5039623;28;20483;-65
2023/08/17 03:13:03;;;;;;;8.63;3.20;;;16.80;99.90;;;;;;5027230;28;20040;-65
2023/08/17 03:15:29;;;;;;;6.32;2.90;;;16.80;99.90;;;;;;5049815;28;20045;-65
2023/08/17 03:17:54;;;;;;;6.45;2.78;;;16.80;99.90;;;;;;5035903;28;20029;-65
2023/08/17 03:20:20;;;;;;;6.13;3.03;;;16.70;99.90;;;;;;5034810;28;20038;-65
2023/08/17 03:22:46;;;;;;;7.88;3.30;;;16.80;99.90;;;;;;5022617;28;20038;-65
2023/08/17 03:25:11;;;;;;;7.68;3.17;;;16.80;99.90;;;;;;5039762;28;20041;-65
2023/08/17 03:27:37;;;;;;;8.00;2.97;;;16.70;99.90;;;;;;5044134;28;20724;-65
2023/08/17 03:30:04;;;;;;;6.57;2.75;;;16.80;99.90;;;;;;5043408;28;20061;-65
2023/08/17 03:32:30;;;;;;;6.88;3.00;;;16.80;99.90;;;;;;5045707;28;20483;-65
2023/08/17 03:34:55;;;;;;;4.85;2.90;;;16.70;99.90;;;;;;5036026;28;20065;-65
2023/08/17 03:37:21;;;;;;;6.97;2.80;;;16.70;99.90;;;;;;5043129;28;20130;-65
2023/08/17 03:39:47;;;;;;;7.70;2.92;;;16.70;99.90;;;;;;5039880;28;20029;-65
2023/08/17 03:42:12;;;;;;;10.10;3.05;;;16.80;99.90;;;;;;5042793;28;20475;-65
2023/08/17 03:44:38;;;;;;;6.55;2.92;;;16.70;99.90;;;;;;5043443;28;20051;-65
2023/08/17 03:47:04;;;;;;;8.57;3.17;;;16.80;99.90;;;;;;5041687;28;20032;-65
2023/08/17 03:49:29;;;;;;;6.57;2.92;;;16.80;99.90;;;;;;5032242;28;20036;-65
2023/08/17 03:51:55;;;;;;;6.70;3.25;;;16.80;99.90;;;;;;5042602;28;20034;-65
2023/08/17 03:54:20;;;;;;;6.25;2.95;;;16.80;99.90;;;;;;5049634;28;20069;-65
2023/08/17 03:56:46;;;;;;;6.88;3.15;;;16.80;99.90;;;;;;5028092;28;20116;-65
2023/08/17 03:59:14;;;;;;;6.00;3.00;;;16.80;99.90;;;;;;5022547;28;20030;-65
2023/08/17 04:01:39;;;;;;;8.07;3.17;;;16.80;99.90;;;;;;5036494;28;20087;-65
2023/08/17 04:04:05;;;;;;;8.80;3.30;;;16.80;99.90;;;;;;4998171;28;20041;-65
2023/08/17 04:06:31;;;;;;;9.95;3.13;;;16.80;99.90;;;;;;5036473;28;20059;-65
2023/08/17 04:08:56;;;;;;;8.70;3.22;;;16.80;99.90;;;;;;5040805;28;20069;-65
2023/08/17 04:11:22;;;;;;;7.22;2.85;;;16.70;99.90;;;;;;5037508;28;20038;-65
2023/08/17 04:13:49;;;;;;;7.43;3.13;;;16.70;99.90;;;;;;5025602;28;20045;-65
2023/08/17 04:16:14;;;;;;;10.27;3.10;;;16.80;99.90;;;;;;5034652;28;20443;-65
2023/08/17 04:18:40;;;;;;;8.98;3.30;;;16.80;99.90;;;;;;5038545;28;20032;-65
2023/08/17 04:21:05;;;;;;;8.75;3.60;;;16.80;99.90;;;;;;5047070;28;20063;-65
2023/08/17 04:23:31;;;;;;;11.45;4.03;;;16.80;99.90;;;;;;5025965;28;20037;-65
2023/08/17 04:25:57;;;;;;;7.03;3.13;;;16.80;99.90;;;;;;5037714;28;20094;-65
2023/08/17 04:28:22;;;;;;;10.98;3.33;;;16.80;99.90;;;;;;5046673;28;20068;-65
2023/08/17 04:30:48;;;;;;;9.30;3.45;;;16.80;99.90;;;;;;5045296;28;20036;-65
2023/08/17 04:33:14;;;;;;;7.97;3.60;;;16.80;99.90;;;;;;5031403;28;20050;-65
2023/08/17 04:35:39;;;;;;;8.70;3.22;;;16.80;99.90;;;;;;5038424;28;20483;-65
2023/08/17 04:38:05;;;;;;;9.80;3.67;;;16.80;99.90;;;;;;5046639;28;20148;-65
2023/08/17 04:40:31;;;;;;;8.52;3.38;;;16.80;99.90;;;;;;5036288;28;20748;-65
2023/08/17 04:42:57;;;;;;;11.52;3.53;;;16.80;99.90;;;;;;5029150;28;20042;-65
2023/08/17 04:45:23;;;;;;;10.05;3.67;;;16.80;99.90;;;;;;5040583;28;20040;-65
2023/08/17 04:47:49;;;;;;;6.15;3.40;;;16.80;99.90;;;;;;5031758;28;20120;-65
2023/08/17 04:50:16;;;;;;;7.78;3.20;;;16.80;99.90;;;;;;5034943;28;20044;-65
2023/08/17 04:52:45;;;;;;;6.93;3.50;;;16.80;99.90;;;;;;5031180;28;20054;-65
2023/08/17 04:55:11;;;;;;;13.15;3.75;;;16.80;99.90;;;;;;5038211;28;20038;-65
2023/08/17 04:57:37;;;;;;;10.35;3.42;;;16.80;99.90;;;;;;5023623;28;20403;-65
2023/08/17 05:00:03;;;;;;;10.27;3.60;;;16.80;99.90;;;;;;5022770;28;20029;-65
2023/08/17 05:02:29;;;;;;;10.18;3.58;;;16.80;99.90;;;;;;5036522;28;20049;-65
2023/08/17 05:04:54;;;;;;;9.75;4.22;;;16.80;99.90;;;;;;5022957;28;20037;-65
2023/08/17 05:07:20;;;;;;;7.47;3.65;;;16.80;99.90;;;;;;5030500;28;20062;-65
2023/08/17 05:09:46;;;;;;;10.38;3.65;;;16.80;99.90;;;;;;5004447;28;20038;-65
2023/08/17 05:12:13;;;;;;;10.85;3.42;;;16.80;99.90;;;;;;5023376;28;20038;-65
2023/08/17 05:14:38;;;;;;;11.23;3.70;;;16.80;99.90;;;;;;5025827;28;20067;-66
2023/08/17 05:17:04;;;;;;;9.18;3.30;;;16.80;99.90;;;;;;5033405;28;20037;-65
2023/08/17 05:19:30;;;;;;;9.70;3.83;;;16.80;99.90;;;;;;5027186;28;20391;-65
2023/08/17 05:21:55;;;;;;;9.73;3.20;;;16.80;99.90;;;;;;5033763;28;20037;-65
2023/08/17 05:24:21;;;;;;;8.73;3.38;;;16.80;99.90;;;;;;5046683;28;20046;-65
2023/08/17 05:26:47;;;;;;;7.97;3.42;;;16.70;99.90;;;;;;5063078;22;20517;-63
2023/08/17 05:29:12;;;;;;;5.35;3.05;;;16.80;99.90;;;;;;5028709;28;20465;-64
2023/08/17 05:31:38;;;;;;;7.78;3.50;;;16.70;99.90;;;;;;5036610;28;20032;-64
2023/08/17 05:34:04;;;;;;;8.25;3.17;;;16.70;99.90;;;;;;5035075;28;20503;-64
2023/08/17 05:36:29;;;;;;;10.40;3.00;;;16.70;99.90;;;;;;5049731;28;20032;-63
2023/08/17 05:38:55;;;;;;;6.75;3.25;;;16.70;99.90;;;;;;5057291;28;20059;-63
2023/08/17 05:41:20;;;;;;;7.93;3.08;;;16.80;99.90;;;;;;5051956;28;20363;-63
2023/08/17 05:43:48;;;;;;;8.75;3.20;;;16.80;99.90;;;;;;5065711;28;20407;-63
2023/08/17 05:46:13;;;;;;;4.88;3.20;;;16.70;99.90;;;;;;5053115;28;20044;-64
2023/08/17 05:48:40;;;;;;;8.75;3.28;;;16.80;99.90;;;;;;5047987;28;20040;-63
2023/08/17 05:51:06;;;;;;;9.93;3.30;;;16.80;99.90;;;;;;5035984;28;20048;-63
2023/08/17 05:53:32;;;;;;;8.82;3.35;;;16.80;99.90;;;;;;5031659;28;20063;-63
2023/08/17 05:55:57;;;;;;;10.05;3.65;;;16.80;99.90;;;;;;5031366;28;20041;-63
2023/08/17 05:58:24;;;;;;;6.53;3.05;;;16.70;99.90;;;;;;5042343;28;20120;-64
2023/08/17 06:00:49;;;;;;;7.45;3.38;;;16.80;99.90;;;;;;5013087;28;20045;-63
2023/08/17 06:03:15;;;;;;;8.32;3.28;;;16.80;99.90;;;;;;5053471;28;20033;-63
2023/08/17 06:05:41;;;;;;;8.52;3.30;;;16.80;99.90;;;;;;5037945;28;20036;-63
2023/08/17 06:08:06;;;;;;;8.18;3.00;;;16.80;99.90;;;;;;5036357;28;20075;-64
2023/08/17 06:10:32;;;;;;;10.93;3.22;;;16.90;99.90;;;;;;5040827;28;20167;-64
2023/08/17 06:12:58;;;;;;;7.47;2.88;;;16.90;99.90;;;;;;5057188;28;20482;-64
2023/08/17 06:15:24;;;;;;;8.48;3.67;;;16.90;99.90;;;;;;5047553;28;20028;-64
2023/08/17 06:17:50;;;;;;;8.35;3.40;;;17.00;99.90;;;;;;5045536;28;20035;-64
2023/08/17 06:20:16;;;;;;;10.70;3.17;;;17.00;99.90;;;;;;5043252;28;20390;-63
2023/08/17 06:22:42;;;;;;;7.57;3.03;;;17.00;99.90;;;;;;5021113;28;20068;-63
2023/08/17 06:25:08;;;;;;;7.03;3.03;;;17.10;99.90;;;;;;5037046;28;20524;-64
2023/08/17 06:27:35;;;;;;;8.40;2.97;;;17.10;99.90;;;;;;5014677;28;20044;-63
2023/08/17 06:30:05;;;;;;;6.55;2.78;;;17.10;99.90;;;;;;5005738;28;20052;-64
2023/08/17 06:32:31;;;;;;;10.68;3.65;;;17.20;99.90;;;;;;5049318;28;20540;-63
2023/08/17 06:34:57;;;;;;;12.90;3.20;;;17.20;99.90;;;;;;5042618;28;20041;-63
2023/08/17 06:37:22;;;;;;;6.40;2.60;;;17.30;99.90;;;;;;5051164;28;20045;-63
2023/08/17 06:39:48;;;;;;;8.65;3.08;;;17.30;99.90;;;;;;5043024;28;20498;-63
2023/08/17 06:42:14;;;;;;;8.32;2.95;;;17.40;99.90;;;;;;5040795;28;20098;-63
2023/08/17 06:44:39;;;;;;;6.32;2.80;;;17.40;99.90;;;;;;5058622;28;20032;-63
2023/08/17 06:47:05;;;;;;;11.00;2.60;;;17.40;99.90;;;;;;5050738;28;20432;-64
2023/08/17 06:49:31;;;;;;;7.22;2.63;;;17.50;99.90;;;;;;5056968;28;20041;-63
2023/08/17 06:51:56;;;;;;;5.72;2.60;;;17.50;99.90;;;;;;5030343;28;20086;-64
2023/08/17 06:54:22;;;;;;;5.45;2.67;;;17.60;99.90;;;;;;5030185;28;20532;-64
2023/08/17 06:56:48;;;;;;;8.73;2.72;;;17.70;99.90;;;;;;5049024;28;20036;-64
2023/08/17 06:59:13;;;;;;;6.85;2.80;;;17.70;99.90;;;;;;5027696;28;20475;-64
2023/08/17 07:01:39;;;;;;;5.80;2.55;;;17.70;99.90;;;;;;5046587;28;20052;-64
2023/08/17 07:04:05;;;;;;;6.03;2.75;;;17.80;99.90;;;;;;5041539;28;20072;-64
2023/08/17 07:06:30;;;;;;;3.97;2.22;;;17.80;99.90;;;;;;5048533;28;20029;-64
2023/08/17 07:08:56;;;;;;;7.82;2.75;;;17.90;99.90;;;;;;5028109;28;20124;-64
2023/08/17 07:11:22;;;;;;;12.85;2.60;;;17.90;99.90;;;;;;5054135;28;20475;-64
2023/08/17 07:13:48;;;;;;;8.70;2.38;;;18.00;99.90;;;;;;5048122;28;20055;-64
2023/08/17 07:16:14;;;;;;;7.20;2.45;;;18.00;99.90;;;;;;5045534;28;20101;-64
2023/08/17 07:18:40;;;;;;;9.05;2.30;;;18.10;99.90;;;;;;5046095;28;20056;-64
2023/08/17 07:21:05;;;;;;;6.07;2.08;;;18.10;99.90;;;;;;5046941;28;20510;-64
2023/08/17 07:23:31;;;;;;;7.88;2.35;;;18.20;99.90;;;;;;5045271;28;20033;-64
2023/08/17 07:25:57;;;;;;;5.28;2.00;;;18.20;99.90;;;;;;5042839;28;20037;-64
2023/08/17 07:28:22;;;;;;;6.75;2.22;;;18.30;99.90;;;;;;5040152;28;20056;-64
2023/08/17 07:30:48;;;;;;;6.47;2.20;;;18.30;99.90;;;;;;5033876;28;20071;-64
2023/08/17 07:33:14;;;;;;;6.32;2.15;;;18.30;99.90;;;;;;5059736;28;20503;-64
2023/08/17 07:35:39;;;;;;;3.78;1.95;;;18.30;99.90;;;;;;5039035;28;20040;-64
2023/08/17 07:38:05;;;;;;;4.25;2.00;;;18.30;99.90;;;;;;5041901;28;20037;-64
2023/08/17 07:40:31;;;;;;;4.82;1.80;;;18.40;99.90;;;;;;5022545;28;20041;-63
2023/08/17 07:42:57;;;;;;;7.22;2.22;;;18.40;99.90;;;;;;5023339;28;20043;-64
2023/08/17 07:45:22;;;;;;;5.40;1.92;;;18.40;99.90;;;;;;5046037;28;20049;-64
2023/08/17 07:47:48;;;;;;;5.97;1.70;;;18.40;99.90;;;;;;5025172;28;20050;-64
2023/08/17 07:50:13;;;;;;;5.00;2.00;;;18.40;99.90;;;;;;5022454;28;20048;-64
2023/08/17 07:52:39;;;;;;;4.07;1.77;;;18.50;99.90;;;;;;5052887;28;20037;-64
2023/08/17 07:55:05;;;;;;;5.40;1.98;;;18.50;99.90;;;;;;5032186;28;20033;-64
2023/08/17 07:57:31;;;;;;;5.20;1.92;;;18.50;99.90;;;;;;5049452;28;20402;-64
2023/08/17 07:59:56;;;;;;;5.80;1.95;;;18.50;99.90;;;;;;5044332;28;20123;-64
2023/08/17 08:02:22;;;;;;;5.50;2.38;;;18.50;99.90;;;;;;5051360;28;20036;-64
2023/08/17 08:04:48;;;;;;;5.80;1.80;;;18.60;99.90;;;;;;5045524;28;20048;-64
2023/08/17 08:07:13;;;;;;;4.85;1.65;;;18.60;99.90;;;;;;5049356;28;20106;-64
2023/08/17 08:09:39;;;;;;;5.22;1.70;;;18.60;99.90;;;;;;5053272;28;20120;-64
2023/08/17 08:12:05;;;;;;;5.65;2.05;;;18.70;99.90;;;;;;5046555;28;20073;-64
2023/08/17 08:14:31;;;;;;;5.43;1.60;;;18.70;99.90;;;;;;5049104;28;20413;-64
2023/08/17 08:16:56;;;;;;;5.43;1.83;;;18.70;99.90;;;;;;5055857;28;20041;-64
2023/08/17 08:19:22;;;;;;;6.03;2.03;;;18.80;99.90;;;;;;5050905;28;20483;-64
2023/08/17 08:21:48;;;;;;;5.80;1.80;;;18.80;99.90;;;;;;5053775;28;20041;-64
2023/08/17 08:24:13;;;;;;;4.53;1.75;;;18.90;99.90;;;;;;5053137;28;20033;-64
2023/08/17 08:26:39;;;;;;;3.65;1.45;;;18.90;99.90;;;;;;5062667;28;20040;-64
2023/08/17 08:29:05;;;;;;;3.97;1.52;;;19.10;99.90;;;;;;5051482;28;20078;-64
2023/08/17 08:31:30;;;;;;;2.83;1.50;;;19.10;99.90;;;;;;5038409;28;20047;-64
2023/08/17 08:33:56;;;;;;;5.47;1.70;;;19.20;99.90;;;;;;5046483;28;20033;-64
2023/08/17 08:36:21;;;;;;;5.05;1.60;;;19.30;99.90;;;;;;5049586;28;20041;-64
2023/08/17 08:38:47;;;;;;;3.05;1.50;;;19.40;99.90;;;;;;5029735;28;20045;-63
2023/08/17 08:41:13;;;;;;;4.82;1.67;;;19.40;99.90;;;;;;5040404;28;20054;-63
2023/08/17 08:43:39;;;;;;;5.18;1.73;;;19.60;99.90;;;;;;5033098;28;20432;-64
2023/08/17 08:46:05;;;;;;;5.20;1.60;;;19.70;99.90;;;;;;5042875;28;20045;-64
2023/08/17 08:48:32;;;;;;;7.28;1.70;;;19.80;99.90;;;;;;5023806;28;20044;-63
2023/08/17 08:51:00;;;;;;;7.07;1.75;;;19.90;99.90;;;;;;5050904;28;20098;-63
2023/08/17 08:53:36;;;;;;;;;;;20.00;99.90;;;;;;5049993;28;20650;-63
2023/08/17 08:56:03;;;;;;;;;;;20.20;99.90;;;;;;5039565;28;19927;-64
2023/08/17 08:58:30;;;;;;;5.88;2.35;;;20.40;99.90;;;;;;5045283;28;20006;-63
2023/08/17 09:00:57;;;;;;;3.45;1.65;;;20.50;99.90;;;;;;5023278;28;20166;-64
2023/08/17 09:03:25;;;;;;;6.40;1.60;;;20.50;99.90;;;;;;5044839;28;20406;-64
2023/08/17 09:05:51;;;;;;;7.70;1.90;;;20.50;99.90;;;;;;5041949;28;20120;-64
2023/08/17 09:08:22;;;;;;;5.25;2.03;;;20.50;99.90;;;;;;5030284;28;20048;-64
2023/08/17 09:10:48;;;;;;;7.72;1.67;;;20.40;99.90;;;;;;5043914;28;20033;-63
2023/08/17 09:13:14;;;;;;;5.25;1.60;;;20.40;99.90;;;;;;5028126;28;20103;-63
2023/08/17 09:15:40;;;;;;;5.78;1.60;;;20.30;99.90;;;;;;5024619;28;20109;-64
2023/08/17 09:18:07;;;;;;;4.53;1.90;;;20.20;99.90;;;;;;5044481;28;20033;-64
2023/08/17 09:20:38;;;;;;;5.55;1.70;;;20.10;99.90;;;;;;5048140;28;20044;-64
2023/08/17 09:23:09;;;;;;;6.40;2.13;;;20.10;99.90;;;;;;5034166;28;20509;-64
2023/08/17 09:25:34;;;;;;;4.45;1.40;;;20.00;99.90;;;;;;5049678;28;20120;-64
2023/08/17 09:28:09;;;;;;;6.72;1.73;;;20.00;99.90;;;;;;5042142;28;20090;-64
2023/08/17 09:30:52;;;;;;;3.28;1.50;;;19.90;99.90;;;;;;5037846;28;20108;-64
2023/08/17 09:33:20;;;;;;;7.57;1.77;;;19.80;99.90;;;;;;5036669;28;20045;-64
2023/08/17 09:35:46;;;;;;;3.63;1.70;;;19.80;99.90;;;;;;5016702;28;20075;-64
2023/08/17 09:38:11;;;;;;;3.15;1.77;;;19.80;99.90;;;;;;5020266;28;20124;-64
2023/08/17 09:40:37;;;;;;;4.95;1.60;;;19.70;99.90;;;;;;5026559;28;20045;-64
2023/08/17 09:43:03;;;;;;;3.83;1.50;;;19.80;99.90;;;;;;5034670;28;20087;-64
2023/08/17 09:45:30;;;;;;;4.82;1.45;;;19.80;99.90;;;;;;5052652;28;20041;-64
2023/08/17 09:47:59;;;;;;;7.28;2.10;;;19.90;99.90;;;;;;5020054;28;20037;-64
2023/08/17 09:50:25;;;;;;;5.93;1.58;;;19.90;99.90;;;;;;5019370;28;20407;-64
2023/08/17 09:52:54;;;;;;;2.80;1.60;;;19.90;99.90;;;;;;5049551;28;20041;-64
2023/08/17 09:55:22;;;;;;;5.88;1.77;;;20.00;99.90;;;;;;5054106;28;20039;-64
2023/08/17 09:57:51;;;;;;;6.55;1.70;;;20.10;99.90;;;;;;5039914;28;20041;-64
2023/08/17 10:00:20;;;;;;;2.97;1.42;;;20.10;99.90;;;;;;5053047;28;20033;-64
2023/08/17 10:02:51;;;;;;;5.28;1.55;;;20.20;99.90;;;;;;5031334;28;20063;-64
2023/08/17 10:05:19;;;;;;;5.63;1.80;;;20.30;99.90;;;;;;5044971;28;20530;-64
2023/08/17 10:07:50;;;;;;;3.85;1.70;;;20.40;99.90;;;;;;5031110;28;20056;-64
2023/08/17 10:10:22;;;;;;;6.47;2.10;;;20.50;99.90;;;;;;5021789;28;20484;-64
2023/08/17 10:12:59;;;;;;;5.28;1.80;;;20.50;99.90;;;;;;5055873;28;20156;-65
2023/08/17 10:15:29;;;;;;;4.75;1.95;;;20.50;99.90;;;;;;5034901;28;20069;-65
2023/08/17 10:18:26;;;;;;;2.78;1.70;;;20.60;99.90;;;;;;5050069;28;20052;-65
2023/08/17 10:21:01;;;;;;;7.90;2.05;;;20.60;99.90;;;;;;5052381;28;20037;-64
2023/08/17 10:23:27;;;;;;;5.03;1.67;;;20.70;99.90;;;;;;5048133;28;20036;-65
2023/08/17 10:25:53;;;;;;;7.45;2.13;;;20.70;99.90;;;;;;5030558;28;20041;-65
2023/08/17 10:28:22;;;;;;;5.45;2.20;;;20.80;99.90;;;;;;5038946;28;20573;-64
2023/08/17 10:30:48;;;;;;;6.10;2.13;;;20.80;99.90;;;;;;5035368;28;20064;-65
2023/08/17 10:33:15;;;;;;;6.53;2.20;;;20.80;99.90;;;;;;5051489;28;20655;-65
2023/08/17 10:35:42;;;;;;;4.88;1.83;;;20.90;99.90;;;;;;5037327;28;20521;-65
2023/08/17 10:38:08;;;;;;;4.38;1.90;;;21.00;99.90;;;;;;5039384;28;20036;-65
2023/08/17 10:40:41;;;;;;;7.47;2.35;;;21.10;99.90;;;;;;5037755;28;20044;-65
2023/08/17 10:43:07;;;;;;;6.45;2.45;;;21.10;99.90;;;;;;5040042;28;20111;-65
2023/08/17 10:45:38;;;;;;;5.72;2.00;;;21.00;99.90;;;;;;5059885;28;20443;-65
2023/08/17 10:48:07;;;;;;;7.63;2.28;;;21.00;99.90;;;;;;5031229;28;20037;-64
2023/08/17 10:50:33;;;;;;;7.22;2.28;;;21.00;99.90;;;;;;5034383;28;20091;-64
2023/08/17 10:53:11;;;;;;;2.95;1.90;;;21.00;99.90;;;;;;5019672;28;20071;-64
2023/08/17 10:55:43;;;;;;;4.35;2.20;;;20.90;99.90;;;;;;5027419;28;20123;-64
2023/08/17 10:58:10;;;;;;;6.00;2.05;;;20.90;99.90;;;;;;5045659;28;20057;-64
2023/08/17 11:00:41;;;;;;;6.15;2.20;;;20.90;99.90;;;;;;5038691;28;20124;-64
2023/08/17 11:03:09;;;;;;;6.13;2.10;;;20.90;99.90;;;;;;5045285;28;20049;-64
2023/08/17 11:05:56;;;;;;;4.65;2.13;;;21.00;99.90;;;;;;5026029;28;20056;-64
2023/08/17 11:08:23;;;;;;;9.60;2.33;;;21.00;99.90;;;;;;5033511;28;20072;-64
2023/08/17 11:11:05;;;;;;;8.52;2.78;;;21.10;99.90;;;;;;5058213;28;20529;-64
2023/08/17 11:13:33;;;;;;;5.72;2.08;;;21.30;99.90;;;;;;5048919;28;20037;-64
2023/08/17 11:16:00;;;;;;;7.22;2.22;;;21.30;99.90;;;;;;5038237;28;20083;-64
2023/08/17 11:18:25;;;;;;;4.70;1.80;;;21.50;99.90;;;;;;5052013;28;20048;-64
2023/08/17 11:20:52;;;;;;;6.88;2.33;;;21.60;99.90;;;;;;5056560;28;20060;-64
2023/08/17 11:23:18;;;;;;;7.55;2.47;;;21.70;99.90;;;;;;5053060;28;20071;-64
2023/08/17 11:25:44;;;;;;;5.47;2.08;;;21.70;99.90;;;;;;5052265;28;20487;-63
2023/08/17 11:28:10;;;;;;;4.05;2.22;;;21.70;99.90;;;;;;5051464;28;20083;-63
2023/08/17 11:30:38;;;;;;;7.72;2.17;;;21.70;99.90;;;;;;5062137;28;20040;-63
2023/08/17 11:33:05;;;;;;;4.85;1.92;;;21.70;99.90;;;;;;5024205;28;20110;-63
2023/08/17 11:35:31;;;;;;;3.58;1.92;;;21.60;99.90;;;;;;5049944;28;20123;-66
2023/08/17 11:37:56;;;;;;;5.18;2.00;;;21.50;99.90;;;;;;5024660;28;20480;-62
2023/08/17 11:40:23;;;;;;;5.93;2.40;;;21.50;99.90;;;;;;5029716;28;20407;-62
2023/08/17 11:42:49;;;;;;;4.43;2.55;;;21.50;99.90;;;;;;5031187;28;20048;-63
2023/08/17 11:45:15;;;;;;;4.47;2.42;;;21.50;99.90;;;;;;5037649;28;20049;-63
2023/08/17 11:47:43;;;;;;;4.18;2.22;;;21.50;99.90;;;;;;5041255;28;20076;-63
2023/08/17 11:50:10;;;;;;;4.03;2.30;;;21.60;99.90;;;;;;5022900;28;20043;-63
2023/08/17 11:52:36;;;;;;;4.25;2.15;;;21.60;99.90;;;;;;5031212;28;20079;-64
2023/08/17 11:55:05;;;;;;;6.82;2.45;;;21.50;99.90;;;;;;5053825;28;20033;-64
2023/08/17 11:57:31;;;;;;;5.35;2.35;;;21.50;99.90;;;;;;5026086;28;20033;-63
2023/08/17 11:59:59;;;;;;;4.55;2.10;;;21.40;99.90;;;;;;5045554;28;20098;-63
2023/08/17 12:02:26;;;;;;;5.47;2.10;;;21.30;99.90;;;;;;5021478;28;20038;-62
2023/08/17 12:04:52;;;;;;;3.70;2.10;;;21.20;99.90;;;;;;5052633;28;20032;-62
2023/08/17 12:07:18;;;;;;;4.13;2.25;;;21.10;99.90;;;;;;5051040;28;20033;-62
2023/08/17 12:09:45;;;;;;;4.97;2.03;;;21.10;99.90;;;;;;5034941;28;20388;-63
2023/08/17 12:12:12;;;;;;;4.75;2.22;;;21.10;99.90;;;;;;5046681;28;20033;-62
2023/08/17 12:14:42;;;;;;;6.05;2.70;;;21.00;99.90;;;;;;5046064;28;20036;-62
2023/08/17 12:17:07;;;;;;;2.78;2.20;;;21.00;99.90;;;;;;5046686;28;20037;-62
2023/08/17 12:19:33;;;;;;;6.10;2.35;;;21.00;99.90;;;;;;5045623;28;20033;-65
2023/08/17 12:21:58;;;;;;;5.85;2.60;;;21.00;99.90;;;;;;5050109;28;20487;-62
2023/08/17 12:24:24;;;;;;;4.50;2.28;;;21.00;99.90;;;;;;5051684;28;20060;-62
2023/08/17 12:26:50;;;;;;;3.15;2.28;;;21.10;99.90;;;;;;5052360;28;20037;-63
2023/08/17 12:29:16;;;;;;;4.32;2.10;;;21.10;99.90;;;;;;5050373;28;20409;-62
2023/08/17 12:31:41;;;;;;;5.35;2.58;;;21.20;99.90;;;;;;5050350;28;20403;-63
2023/08/17 12:34:07;;;;;;;3.67;2.10;;;21.10;99.90;;;;;;5051088;28;20052;-64
2023/08/17 12:36:35;;;;;;;4.95;2.70;;;21.10;99.90;;;;;;5029424;28;20061;-62
2023/08/17 12:39:01;;;;;;;5.57;2.45;;;21.20;99.90;;;;;;5050545;28;20118;-62
2023/08/17 12:41:26;;;;;;;6.90;2.58;;;21.20;99.90;;;;;;5061589;28;20077;-62
2023/08/17 12:43:53;;;;;;;6.32;2.63;;;21.20;99.90;;;;;;5055471;28;20041;-65
2023/08/17 12:46:19;;;;;;;6.53;2.90;;;21.20;99.90;;;;;;5025447;28;20063;-62
2023/08/17 12:48:45;;;;;;;5.60;2.50;;;21.10;99.90;;;;;;5055318;28;20115;-62